Time;durP1;ratioP1;P1;durP2;ratioP2;P2;SDS_P1;SDS_P2;PMS_P1;PMS_P2;Temp;Humidity;BMP_temperature;BMP_pressure;BME280_temperature;BME280_humidity;BME280_pressure;Samples;Min_cycle;Max_cycle;Signal;HPM_P1;HPM_P2
2023/02/17 00:02:11;;;;;;;;;;;;;;;;;;4437059;32;20125;-79
2023/02/17 00:04:37;;;;;;;46.30;29.67;;;;;;;;;;4437984;32;19971;-79
2023/02/17 00:07:02;;;;;;;49.30;29.48;;;;;;;;;;4437006;32;20403;-79
2023/02/17 00:09:27;;;;;;;;;;;;;;;;;;4438833;32;20316;-79
2023/02/17 00:11:52;;;;;;;59.22;31.58;;;;;;;;;;4438400;32;19963;-79
2023/02/17 00:14:17;;;;;;;;;;;;;;;;;;4432576;32;20129;-79
2023/02/17 00:16:43;;;;;;;55.90;31.15;;;;;;;;;;4422909;32;19999;-79
2023/02/17 00:19:24;;;;;;;;;;;;;;;;;;4428192;32;20236;-79
2023/02/17 00:21:50;;;;;;;61.85;33.17;;;;;;;;;;4421201;32;19966;-79
2023/02/17 00:24:16;;;;;;;65.43;33.03;;;;;;;;;;4421327;32;20053;-79
2023/02/17 00:26:41;;;;;;;;;;;;;;;;;;4411949;32;20082;-79
2023/02/17 00:29:06;;;;;;;67.90;32.85;;;;;;;;;;4438799;32;20337;-79
2023/02/17 00:31:31;;;;;;;63.87;33.53;;;;;;;;;;4438560;32;20030;-80
2023/02/17 00:33:56;;;;;;;68.40;33.63;;;;;;;;;;4439966;32;20086;-79
2023/02/17 00:36:21;;;;;;;;;;;;;;;;;;4424348;32;20041;-78
2023/02/17 00:38:47;;;;;;;74.30;31.45;;;;;;;;;;4422562;32;19972;-80
2023/02/17 00:41:12;;;;;;;;;;;;;;;;;;4438674;32;20227;-79
2023/02/17 00:43:37;;;;;;;71.95;33.28;;;;;;;;;;4437652;32;19933;-79
2023/02/17 00:46:03;;;;;;;;;;;;;;;;;;4436818;32;20121;-79
2023/02/17 00:48:29;;;;;;;78.32;33.97;;;;;;;;;;4437446;32;19977;-81
2023/02/17 00:50:54;;;;;;;80.85;33.60;;;;;;;;;;4436395;32;20060;-79
2023/02/17 00:53:19;;;;;;;;;;;;;;;;;;4436911;32;20030;-80
2023/02/17 00:55:44;;;;;;;78.32;33.78;;;;;;;;;;4436553;32;19942;-79
2023/02/17 00:58:10;;;;;;;77.43;34.40;;;;;;;;;;4437775;32;20041;-79
2023/02/17 01:00:35;;;;;;;;;;;;;;;;;;4423368;32;20116;-79
2023/02/17 01:03:00;;;;;;;84.22;34.10;;;;;;;;;;4436615;32;19944;-79
2023/02/17 01:05:25;;;;;;;;;;;;;;;;;;4437517;32;20156;-79
2023/02/17 01:07:50;;;;;;;77.90;34.55;;;;;;;;;;4436339;32;19962;-79
2023/02/17 01:10:16;;;;;;;74.43;32.92;;;;;;;;;;4436459;32;20094;-79
2023/02/17 01:12:41;;;;;;;;;;;;;;;;;;4422146;32;20150;-80
2023/02/17 01:15:06;;;;;;;76.80;33.13;;;;;;;;;;4437470;32;19968;-79
2023/02/17 01:17:31;;;;;;;;;;;;;;;;;;4436665;32;20075;-79
2023/02/17 01:19:56;;;;;;;73.47;33.63;;;;;;;;;;4436308;32;20009;-79
2023/02/17 01:22:22;;;;;;;81.22;34.63;;;;;;;;;;4409751;32;20037;-79
2023/02/17 01:24:47;;;;;;;;;;;;;;;;;;4420529;32;20473;-78
2023/02/17 01:27:12;;;;;;;71.87;32.78;;;;;;;;;;4420468;32;19937;-79
2023/02/17 01:29:37;;;;;;;;;;;;;;;;;;4422343;32;20025;-79
2023/02/17 01:32:02;;;;;;;74.75;32.20;;;;;;;;;;4423150;32;19941;-79
2023/02/17 01:34:27;;;;;;;;;;;;;;;;;;4423183;32;20125;-79
2023/02/17 01:36:53;;;;;;;69.25;33.42;;;;;;;;;;4422582;32;19975;-78
2023/02/17 01:39:18;;;;;;;;;;;;;;;;;;4420818;32;20130;-79
2023/02/17 01:41:43;;;;;;;68.65;28.85;;;;;;;;;;4407449;32;19968;-79
2023/02/17 01:44:08;;;;;;;;;;;;;;;;;;4428317;32;20033;-79
2023/02/17 01:46:34;;;;;;;56.90;28.10;;;;;;;;;;4422114;32;19940;-80
2023/02/17 01:49:01;;;;;;;55.25;25.95;;;;;;;;;;4437345;32;20141;-78
2023/02/17 01:51:27;;;;;;;52.35;26.30;;;;;;;;;;4436279;32;20453;-79
2023/02/17 01:53:59;;;;;;;45.67;25.33;;;;;;;;;;4437553;32;20352;-79
2023/02/17 01:56:25;;;;;;;59.53;26.10;;;;;;;;;;4436657;32;20025;-80
2023/02/17 01:58:50;;;;;;;;;;;;;;;;;;4436317;32;20433;-79
2023/02/17 02:01:15;;;;;;;49.53;24.65;;;;;;;;;;4436022;32;20296;-79
2023/02/17 02:03:42;;;;;;;53.90;26.27;;;;;;;;;;4435982;32;20054;-80
2023/02/17 02:06:12;;;;;;;44.13;22.73;;;;;;;;;;4437024;32;20030;-79
2023/02/17 02:08:41;;;;;;;46.78;23.42;;;;;;;;;;4421256;32;20033;-79
2023/02/17 02:11:07;;;;;;;44.60;24.33;;;;;;;;;;4436806;32;20057;-80
2023/02/17 02:13:32;;;;;;;;;;;;;;;;;;4435478;32;20064;-78
2023/02/17 02:16:03;;;;;;;44.17;23.40;;;;;;;;;;4435538;32;19998;-78
2023/02/17 02:18:46;;;;;;;47.70;24.52;;;;;;;;;;4435596;32;20083;-79
2023/02/17 02:21:15;;;;;;;50.50;24.20;;;;;;;;;;4437439;32;20038;-79
2023/02/17 02:23:46;;;;;;;50.60;24.67;;;;;;;;;;4435803;32;20355;-78
2023/02/17 02:26:29;;;;;;;47.97;24.67;;;;;;;;;;4435643;32;20029;-79
2023/02/17 02:29:24;;;;;;;47.13;25.15;;;;;;;;;;4435380;32;20025;-78
2023/02/17 02:31:56;;;;;;;47.13;24.85;;;;;;;;;;4422546;32;20029;-79
2023/02/17 02:34:22;;;;;;;52.08;24.98;;;;;;;;;;4436995;32;20374;-79
2023/02/17 02:36:55;;;;;;;49.42;24.33;;;;;;;;;;4435530;32;20099;-78
2023/02/17 02:39:22;;;;;;;55.67;24.80;;;;;;;;;;4435145;32;20152;-79
2023/02/17 02:41:49;;;;;;;48.38;24.70;;;;;;;;;;4435632;32;20125;-78
2023/02/17 02:44:16;;;;;;;54.28;26.20;;;;;;;;;;4435765;32;20072;-78
2023/02/17 02:46:41;;;;;;;47.67;25.80;;;;;;;;;;4439215;32;20415;-78
2023/02/17 02:49:06;;;;;;;;;;;;;;;;;;4440122;32;20094;-79
2023/02/17 02:51:43;;;;;;;51.80;24.55;;;;;;;;;;4438385;32;19937;-79
2023/02/17 02:54:16;;;;;;;55.08;25.50;;;;;;;;;;4439925;32;20025;-79
2023/02/17 02:56:58;;;;;;;60.88;28.35;;;;;;;;;;4424043;32;20052;-79
2023/02/17 02:59:41;;;;;;;69.55;26.60;;;;;;;;;;4438213;32;20029;-79
2023/02/17 03:02:26;;;;;;;66.62;27.85;;;;;;;;;;4437645;32;20431;-79
2023/02/17 03:04:58;;;;;;;54.25;26.85;;;;;;;;;;4437521;32;20041;-79
2023/02/17 03:07:25;;;;;;;67.62;30.70;;;;;;;;;;4437963;32;20051;-78
2023/02/17 03:09:52;;;;;;;63.38;29.95;;;;;;;;;;4439436;32;20060;-78
2023/02/17 03:12:18;;;;;;;74.78;31.83;;;;;;;;;;4439044;32;20030;-79
2023/02/17 03:14:43;;;;;;;;;;;;;;;;;;4440031;32;20030;-79
2023/02/17 03:17:09;;;;;;;64.97;30.30;;;;;;;;;;4439998;32;20314;-78
2023/02/17 03:19:34;;;;;;;57.65;27.25;;;;;;;;;;4438130;32;20081;-79
2023/02/17 03:22:03;;;;;;;59.05;29.60;;;;;;;;;;4437420;32;20095;-77
2023/02/17 03:24:29;;;;;;;60.92;30.92;;;;;;;;;;4439511;32;20041;-78
2023/02/17 03:26:54;;;;;;;;;;;;;;;;;;4439022;32;20071;-78
2023/02/17 03:29:19;;;;;;;56.97;28.65;;;;;;;;;;4440043;32;20318;-80
2023/02/17 03:31:44;;;;;;;61.08;29.98;;;;;;;;;;4439057;32;20097;-80
2023/02/17 03:34:09;;;;;;;;;;;;;;;;;;4439274;32;20030;-79
2023/02/17 03:36:34;;;;;;;61.75;31.90;;;;;;;;;;4437495;32;19936;-79
2023/02/17 03:39:00;;;;;;;64.40;30.65;;;;;;;;;;4437281;32;20053;-79
2023/02/17 03:41:25;;;;;;;67.12;36.42;;;;;;;;;;4437960;32;20350;-80
2023/02/17 03:43:50;;;;;;;62.05;35.05;;;;;;;;;;4438922;32;20048;-78
2023/02/17 03:46:15;;;;;;;;;;;;;;;;;;4438722;32;20096;-78
2023/02/17 03:48:41;;;;;;;68.20;36.50;;;;;;;;;;4437726;32;19981;-78
2023/02/17 03:51:06;;;;;;;;;;;;;;;;;;4439453;32;20156;-79
2023/02/17 03:53:31;;;;;;;63.83;37.10;;;;;;;;;;4439709;32;19970;-78
2023/02/17 03:55:56;;;;;;;66.62;38.05;;;;;;;;;;4439234;32;20071;-78
2023/02/17 03:58:21;;;;;;;;;;;;;;;;;;4425058;32;20095;-79
2023/02/17 04:00:46;;;;;;;68.68;37.03;;;;;;;;;;4439258;32;20064;-78
2023/02/17 04:03:12;;;;;;;57.33;34.35;;;;;;;;;;4439179;32;20391;-78
2023/02/17 04:05:37;;;;;;;;;;;;;;;;;;4439376;32;20068;-78
2023/02/17 04:08:02;;;;;;;60.70;35.03;;;;;;;;;;4438372;32;20370;-78
2023/02/17 04:10:27;;;;;;;;;;;;;;;;;;4438237;32;20124;-78
2023/02/17 04:12:52;;;;;;;62.10;35.97;;;;;;;;;;4437612;32;19995;-78
2023/02/17 04:15:17;;;;;;;49.30;29.77;;;;;;;;;;4437391;32;20030;-78
2023/02/17 04:17:43;;;;;;;59.42;32.55;;;;;;;;;;4437837;32;20082;-78
2023/02/17 04:20:08;;;;;;;;;;;;;;;;;;4438922;32;20026;-79
2023/02/17 04:22:33;;;;;;;55.12;30.67;;;;;;;;;;4437828;32;19941;-78
2023/02/17 04:24:58;;;;;;;;;;;;;;;;;;4437810;32;20148;-78
2023/02/17 04:27:23;;;;;;;54.67;33.17;;;;;;;;;;4438217;32;19971;-77
2023/02/17 04:29:49;;;;;;;59.63;31.95;;;;;;;;;;4438387;32;20034;-79
2023/02/17 04:32:15;;;;;;;53.45;31.73;;;;;;;;;;4428522;32;20081;-78
2023/02/17 04:34:40;;;;;;;;;;;;;;;;;;4423085;32;20645;-79
2023/02/17 04:37:05;;;;;;;54.97;31.25;;;;;;;;;;4429486;32;20004;-78
2023/02/17 04:39:30;;;;;;;;;;;;;;;;;;4441789;32;20128;-78
2023/02/17 04:41:55;;;;;;;60.03;34.10;;;;;;;;;;4425442;32;20346;-78
2023/02/17 04:44:20;;;;;;;;;;;;;;;;;;4437637;32;20121;-77
2023/02/17 04:46:45;;;;;;;64.25;33.97;;;;;;;;;;4436821;32;19985;-78
2023/02/17 04:49:11;;;;;;;67.45;34.50;;;;;;;;;;4437246;32;20025;-78
2023/02/17 04:51:36;;;;;;;;;;;;;;;;;;4437810;32;20402;-78
2023/02/17 04:54:01;;;;;;;75.60;37.20;;;;;;;;;;4436320;32;19933;-77
2023/02/17 04:56:26;;;;;;;;;;;;;;;;;;4436205;32;20117;-78
2023/02/17 04:58:51;;;;;;;65.72;34.92;;;;;;;;;;4435629;32;19937;-77
2023/02/17 05:01:16;;;;;;;59.80;32.92;;;;;;;;;;4436051;32;20037;-78
2023/02/17 05:03:41;;;;;;;;;;;;;;;;;;4424121;32;20033;-79
2023/02/17 05:06:07;;;;;;;64.47;38.03;;;;;;;;;;4436241;32;20016;-80
2023/02/17 05:08:32;;;;;;;64.28;33.47;;;;;;;;;;4435603;32;20419;-78
2023/02/17 05:10:57;;;;;;;;;;;;;;;;;;4423095;32;20034;-79
2023/02/17 05:13:22;;;;;;;63.22;34.88;;;;;;;;;;4436074;32;19997;-79
2023/02/17 05:15:47;;;;;;;;;;;;;;;;;;4436507;32;20129;-80
2023/02/17 05:18:13;;;;;;;63.60;35.22;;;;;;;;;;4421633;32;19947;-79
2023/02/17 05:20:38;;;;;;;63.87;35.80;;;;;;;;;;4437201;32;20033;-78
2023/02/17 05:23:03;;;;;;;;;;;;;;;;;;4436138;32;20064;-79
2023/02/17 05:25:28;;;;;;;64.78;35.70;;;;;;;;;;4421747;32;19947;-78
2023/02/17 05:27:53;;;;;;;;;;;;;;;;;;4436964;32;20160;-78
2023/02/17 05:30:19;;;;;;;68.25;38.15;;;;;;;;;;4435573;32;19973;-79
2023/02/17 05:32:44;;;;;;;;;;;;;;;;;;4436444;32;20484;-78
2023/02/17 05:35:09;;;;;;;63.30;35.10;;;;;;;;;;4435988;32;20377;-78
2023/02/17 05:37:34;;;;;;;;;;;;;;;;;;4436684;32;20159;-77
2023/02/17 05:39:59;;;;;;;76.00;37.78;;;;;;;;;;4423044;32;19971;-78
2023/02/17 05:42:27;;;;;;;68.20;35.03;;;;;;;;;;4436072;32;20464;-78
2023/02/17 05:44:53;;;;;;;64.55;36.33;;;;;;;;;;4438074;32;20371;-77
2023/02/17 05:47:18;;;;;;;;;;;;;;;;;;4422470;32;20030;-78
2023/02/17 05:49:43;;;;;;;66.90;34.42;;;;;;;;;;4438027;32;20291;-78
2023/02/17 05:52:08;;;;;;;62.70;35.03;;;;;;;;;;4437020;32;20030;-79
2023/02/17 05:54:33;;;;;;;71.35;34.58;;;;;;;;;;4422250;32;20041;-78
2023/02/17 05:56:58;;;;;;;60.30;31.33;;;;;;;;;;4433220;32;20410;-77
2023/02/17 05:59:23;;;;;;;;;;;;;;;;;;4424311;32;20034;-79
2023/02/17 06:01:49;;;;;;;58.65;31.10;;;;;;;;;;4430877;32;19992;-77
2023/02/17 06:04:14;;;;;;;;;;;;;;;;;;4431372;32;20137;-77
2023/02/17 06:06:39;;;;;;;50.00;28.30;;;;;;;;;;4419916;32;19933;-76
2023/02/17 06:09:04;;;;;;;;;;;;;;;;;;4420592;32;20177;-76
2023/02/17 06:11:29;;;;;;;59.63;28.95;;;;;;;;;;4429726;32;19941;-77
2023/02/17 06:13:54;;;;;;;53.72;27.83;;;;;;;;;;4437323;32;20030;-77
2023/02/17 06:16:19;;;;;;;;;;;;;;;;;;4434525;32;20094;-77
2023/02/17 06:18:45;;;;;;;48.40;26.67;;;;;;;;;;4422817;32;19951;-78
2023/02/17 06:21:10;;;;;;;;;;;;;;;;;;4442694;32;20128;-78
2023/02/17 06:23:35;;;;;;;49.95;25.17;;;;;;;;;;4421459;32;19941;-77
2023/02/17 06:26:00;;;;;;;;;;;;;;;;;;4413387;32;20226;-78
2023/02/17 06:28:25;;;;;;;47.50;26.60;;;;;;;;;;4426770;32;19956;-78
2023/02/17 06:30:50;;;;;;;46.03;24.77;;;;;;;;;;4437360;32;20025;-77
2023/02/17 06:33:15;;;;;;;;;;;;;;;;;;4440416;32;20424;-78
2023/02/17 06:35:41;;;;;;;42.80;24.35;;;;;;;;;;4424686;32;19937;-78
2023/02/17 06:38:06;;;;;;;39.95;22.77;;;;;;;;;;4439463;32;20202;-79
2023/02/17 06:40:31;;;;;;;;;;;;;;;;;;4440362;32;20075;-77
2023/02/17 06:42:56;;;;;;;42.17;23.87;;;;;;;;;;4424261;32;19936;-78
2023/02/17 06:45:21;;;;;;;;;;;;;;;;;;4424909;32;20129;-79
2023/02/17 06:47:46;;;;;;;42.65;23.80;;;;;;;;;;4438775;32;19983;-78
2023/02/17 06:50:12;;;;;;;43.10;22.92;;;;;;;;;;4440180;32;20030;-78
2023/02/17 06:52:37;;;;;;;42.83;23.45;;;;;;;;;;4424775;32;20029;-78
2023/02/17 06:55:03;;;;;;;41.40;23.62;;;;;;;;;;4438141;32;20048;-80
2023/02/17 06:57:28;;;;;;;;;;;;;;;;;;4438029;32;20102;-78
2023/02/17 06:59:53;;;;;;;38.70;22.30;;;;;;;;;;4438047;32;19946;-79
2023/02/17 07:02:18;;;;;;;;;;;;;;;;;;4426717;32;20133;-79
2023/02/17 07:04:43;;;;;;;38.63;21.23;;;;;;;;;;4438454;32;19969;-77
2023/02/17 07:07:09;;;;;;;40.40;22.25;;;;;;;;;;4424246;32;20476;-79
2023/02/17 07:09:34;;;;;;;;;;;;;;;;;;4424925;32;20025;-78
2023/02/17 07:12:00;;;;;;;38.47;22.25;;;;;;;;;;4440298;32;19933;-78
2023/02/17 07:14:25;;;;;;;36.83;22.58;;;;;;;;;;4427746;32;20464;-80
2023/02/17 07:16:50;;;;;;;;;;;;;;;;;;4442862;32;20056;-78
2023/02/17 07:19:15;;;;;;;39.92;21.90;;;;;;;;;;4444253;32;20377;-81
2023/02/17 07:21:41;;;;;;;31.45;21.33;;;;;;;;;;4445831;32;20051;-79
2023/02/17 07:24:06;;;;;;;;;;;;;;;;;;4440682;32;20056;-80
2023/02/17 07:26:34;;;;;;;33.33;22.27;;;;;;;;;;4440547;32;20343;-76
2023/02/17 07:29:00;;;;;;;37.15;22.77;;;;;;;;;;4433437;32;20029;-80
2023/02/17 07:31:25;;;;;;;34.67;22.58;;;;;;;;;;4447558;32;20034;-81
2023/02/17 07:33:51;;;;;;;;;;;;;;;;;;4445888;32;20034;-81
2023/02/17 07:36:16;;;;;;;39.30;25.15;;;;;;;;;;4442332;32;19964;-80
2023/02/17 07:38:41;;;;;;;;;;;;;;;;;;4442156;32;20144;-80
2023/02/17 07:41:11;;;;;;;36.13;24.55;;;;;;;;;;4442455;32;19948;-80
2023/02/17 07:43:36;;;;;;;35.20;24.02;;;;;;;;;;4439794;32;20090;-79
2023/02/17 07:46:01;;;;;;;;;;;;;;;;;;4438883;32;20026;-80
2023/02/17 07:48:27;;;;;;;37.70;23.90;;;;;;;;;;4439567;32;19975;-80
2023/02/17 07:50:52;;;;;;;39.50;24.37;;;;;;;;;;4439591;32;20076;-80
2023/02/17 07:53:17;;;;;;;;;;;;;;;;;;4439320;32;20025;-81
2023/02/17 07:55:42;;;;;;;38.10;25.35;;;;;;;;;;4425028;32;19984;-80
2023/02/17 07:58:08;;;;;;;41.75;25.77;;;;;;;;;;4439838;32;20056;-80
2023/02/17 08:00:33;;;;;;;;;;;;;;;;;;4441862;32;20026;-80
2023/02/17 08:02:58;;;;;;;35.47;23.30;;;;;;;;;;4442460;32;19948;-79
2023/02/17 08:05:23;;;;;;;;;;;;;;;;;;4439001;32;20030;-80
2023/02/17 08:13:17;;;;;;;36.47;23.42;;;;;;;;;;4439591;32;19941;-79
2023/02/17 08:13:19;;;;;;;45.65;26.30;;;;;;;;;;4439769;32;20109;-80
2023/02/17 08:15:44;;;;;;;;;;;;;;;;;;4424343;32;20030;-77
2023/02/17 08:18:10;;;;;;;43.28;26.42;;;;;;;;;;4438222;32;19951;-79
2023/02/17 08:20:35;;;;;;;42.30;27.23;;;;;;;;;;4425683;32;20071;-80
2023/02/17 08:23:02;;;;;;;;;;;;;;;;;;4439028;32;20041;-79
2023/02/17 08:25:29;;;;;;;43.50;25.98;;;;;;;;;;4424271;32;20253;-79
2023/02/17 08:27:55;;;;;;;42.03;26.55;;;;;;;;;;4427370;32;20026;-79
2023/02/17 08:30:20;;;;;;;;;;;;;;;;;;4444989;32;20025;-78
2023/02/17 08:32:46;;;;;;;39.88;26.37;;;;;;;;;;4441839;32;19941;-79
2023/02/17 08:35:11;;;;;;;41.47;27.55;;;;;;;;;;4442280;32;20147;-81
2023/02/17 08:37:36;;;;;;;;;;;;;;;;;;4441282;32;20395;-80
2023/02/17 08:40:02;;;;;;;41.25;25.00;;;;;;;;;;4444637;32;19936;-79
2023/02/17 08:42:30;;;;;;;32.70;23.58;;;;;;;;;;4441646;32;20078;-79
2023/02/17 08:44:55;;;;;;;36.83;23.98;;;;;;;;;;4438743;32;20052;-79
2023/02/17 08:47:20;;;;;;;;;;;;;;;;;;4439291;32;20483;-79
2023/02/17 08:49:45;;;;;;;39.72;21.50;;;;;;;;;;4437853;32;19933;-79
2023/02/17 08:52:10;;;;;;;30.75;19.80;;;;;;;;;;4437360;32;20056;-79
2023/02/17 08:54:36;;;;;;;;;;;;;;;;;;4437058;32;20066;-80
2023/02/17 08:57:01;;;;;;;27.23;19.15;;;;;;;;;;4436931;32;20219;-79
2023/02/17 08:59:26;;;;;;;;;;;;;;;;;;4438329;32;20061;-78
2023/02/17 09:01:51;;;;;;;32.25;20.05;;;;;;;;;;4438534;32;19972;-80
2023/02/17 09:04:17;;;;;;;29.33;20.23;;;;;;;;;;4436965;32;20391;-80
2023/02/17 09:06:42;;;;;;;;;;;;;;;;;;4439471;32;20082;-79
2023/02/17 09:09:08;;;;;;;27.55;17.15;;;;;;;;;;4436995;32;19969;-79
2023/02/17 09:11:34;;;;;;;30.37;18.83;;;;;;;;;;4437188;32;20037;-80
2023/02/17 09:13:59;;;;;;;;;;;;;;;;;;4423742;32;20387;-81
2023/02/17 09:16:24;;;;;;;24.17;17.05;;;;;;;;;;4438640;32;19948;-81
2023/02/17 09:18:50;;;;;;;;;;;;;;;;;;4438017;32;20037;-81
2023/02/17 09:21:15;;;;;;;30.37;18.83;;;;;;;;;;4437554;32;19941;-81
2023/02/17 09:23:40;;;;;;;;;;;;;;;;;;4442176;32;20189;-80
2023/02/17 09:26:08;;;;;;;29.58;19.83;;;;;;;;;;4436948;32;19984;-80
2023/02/17 09:28:34;;;;;;;30.55;19.92;;;;;;;;;;4435592;32;20431;-80
2023/02/17 09:30:59;;;;;;;;;;;;;;;;;;4439871;32;20082;-78
2023/02/17 09:33:24;;;;;;;34.10;20.24;;;;;;;;;;4439692;32;19951;-81
2023/02/17 09:35:50;;;;;;;;;;;;;;;;;;4438003;32;20068;-79
2023/02/17 09:38:15;;;;;;;34.33;21.60;;;;;;;;;;4440182;32;20283;-80
2023/02/17 09:40:40;;;;;;;;;;;;;;;;;;4439341;32;20052;-81
2023/02/17 09:43:11;;;;;;;35.47;22.85;;;;;;;;;;4438196;32;19941;-81
2023/02/17 09:45:36;;;;;;;31.40;22.55;;;;;;;;;;4437941;32;20052;-81
2023/02/17 09:48:01;;;;;;;;;;;;;;;;;;4437583;32;20030;-80
2023/02/17 09:50:50;;;;;;;30.15;19.77;;;;;;;;;;4437903;32;20011;-81
2023/02/17 09:53:34;;;;;;;35.33;22.80;;;;;;;;;;4429379;32;20125;-79
2023/02/17 09:56:01;;;;;;;27.58;20.40;;;;;;;;;;4426606;32;20034;-80
2023/02/17 09:58:33;;;;;;;33.00;21.15;;;;;;;;;;4440990;32;20069;-81
2023/02/17 10:01:03;;;;;;;29.17;19.90;;;;;;;;;;4444383;32;20025;-81
2023/02/17 10:03:37;;;;;;;31.05;20.77;;;;;;;;;;4441505;32;20026;-81
2023/02/17 10:06:26;;;;;;;34.22;20.25;;;;;;;;;;4425582;32;20064;-80
2023/02/17 10:09:03;;;;;;;37.55;21.73;;;;;;;;;;4440262;32;20026;-80
2023/02/17 10:11:33;;;;;;;28.87;21.48;;;;;;;;;;4426556;32;20029;-80
2023/02/17 10:14:01;;;;;;;26.00;19.85;;;;;;;;;;4440542;32;20108;-79
2023/02/17 10:16:30;;;;;;;30.80;21.50;;;;;;;;;;4425126;32;20069;-82
2023/02/17 10:19:06;;;;;;;30.62;22.17;;;;;;;;;;4440572;32;20415;-79
2023/02/17 10:21:35;;;;;;;26.92;20.70;;;;;;;;;;4439826;32;20086;-80
2023/02/17 10:24:01;;;;;;;30.50;21.80;;;;;;;;;;4440866;32;20037;-79
2023/02/17 10:26:26;;;;;;;;;;;;;;;;;;4439968;32;20525;-79
2023/02/17 10:28:53;;;;;;;31.87;20.10;;;;;;;;;;4440682;32;19948;-80
2023/02/17 10:31:18;;;;;;;27.45;19.55;;;;;;;;;;4439542;32;20133;-80
2023/02/17 10:34:01;;;;;;;24.27;18.02;;;;;;;;;;4438645;32;20059;-81
2023/02/17 10:36:32;;;;;;;26.45;17.77;;;;;;;;;;4440281;32;20093;-79
2023/02/17 10:39:05;;;;;;;24.77;15.20;;;;;;;;;;4439561;32;20071;-80
2023/02/17 10:41:35;;;;;;;28.83;16.98;;;;;;;;;;4440447;32;20060;-80
2023/02/17 10:44:01;;;;;;;25.08;16.10;;;;;;;;;;4441536;32;20025;-79
2023/02/17 10:46:28;;;;;;;23.65;18.05;;;;;;;;;;4448005;32;20061;-79
2023/02/17 10:48:54;;;;;;;26.58;17.67;;;;;;;;;;4449358;32;20060;-78
2023/02/17 10:51:23;;;;;;;31.02;16.90;;;;;;;;;;4448783;32;20033;-80
2023/02/17 10:53:51;;;;;;;23.42;15.38;;;;;;;;;;4444055;32;20037;-80
2023/02/17 10:56:22;;;;;;;27.27;15.48;;;;;;;;;;4443633;32;20488;-79
2023/02/17 10:58:56;;;;;;;26.05;17.80;;;;;;;;;;4431739;32;20098;-79
2023/02/17 11:01:24;;;;;;;29.27;18.05;;;;;;;;;;4444043;32;20064;-79
2023/02/17 11:03:59;;;;;;;32.55;19.48;;;;;;;;;;4440773;32;20033;-80
2023/02/17 11:06:25;;;;;;;29.45;20.12;;;;;;;;;;4440103;32;20141;-80
2023/02/17 11:08:50;;;;;;;;;;;;;;;;;;4441375;32;20037;-79
2023/02/17 11:11:16;;;;;;;27.98;18.23;;;;;;;;;;4439713;32;20296;-81
2023/02/17 11:13:56;;;;;;;29.83;19.67;;;;;;;;;;4440267;32;20435;-81
2023/02/17 11:16:26;;;;;;;31.00;18.08;;;;;;;;;;4426252;32;20037;-80
2023/02/17 11:18:52;;;;;;;32.35;17.87;;;;;;;;;;4426539;32;20435;-81
2023/02/17 11:21:17;;;;;;;;;;;;;;;;;;4446635;32;20139;-76
2023/02/17 11:23:48;;;;;;;23.90;14.75;;;;;;;;;;4444670;32;19941;-79
2023/02/17 11:26:21;;;;;;;23.90;12.02;;;;;;;;;;4441103;32;20172;-80
2023/02/17 11:28:46;;;;;;;23.50;12.55;;;;;;;;;;4441010;32;20030;-79
2023/02/17 11:31:11;;;;;;;;;;;;;;;;;;4441877;32;20071;-79
2023/02/17 11:33:37;;;;;;;24.27;12.80;;;;;;;;;;4430361;32;19941;-79
2023/02/17 11:36:04;;;;;;;25.48;12.13;;;;;;;;;;4425530;32;20081;-80
2023/02/17 11:38:38;;;;;;;26.67;11.07;;;;;;;;;;4438708;32;20050;-77
2023/02/17 11:41:05;;;;;;;23.80;11.30;;;;;;;;;;4442013;32;20056;-78
2023/02/17 11:43:31;;;;;;;23.38;11.10;;;;;;;;;;4427694;32;20105;-79
2023/02/17 11:46:15;;;;;;;27.55;11.10;;;;;;;;;;4442191;32;20456;-79
2023/02/17 11:48:47;;;;;;;23.45;10.57;;;;;;;;;;4430284;32;20057;-79
2023/02/17 11:51:15;;;;;;;26.52;10.15;;;;;;;;;;4443925;32;20105;-81
2023/02/17 11:53:58;;;;;;;23.65;10.63;;;;;;;;;;4431153;32;20052;-79
2023/02/17 11:56:33;;;;;;;23.80;9.88;;;;;;;;;;4443823;32;20030;-79
2023/02/17 11:59:17;;;;;;;22.83;8.77;;;;;;;;;;4445101;32;20033;-79
2023/02/17 12:01:42;;;;;;;24.70;10.70;;;;;;;;;;4442310;32;20087;-78
2023/02/17 12:04:07;;;;;;;;;;;;;;;;;;4442023;32;20029;-79
2023/02/17 12:07:08;;;;;;;23.08;9.75;;;;;;;;;;4434024;32;19951;-79
2023/02/17 12:09:33;;;;;;;23.10;9.57;;;;;;;;;;4366077;32;20424;-78
2023/02/17 12:11:58;;;;;;;;;;;;;;;;;;4422952;32;20431;-79
2023/02/17 12:14:42;;;;;;;22.27;10.20;;;;;;;;;;4429974;32;19936;-79
2023/02/17 12:17:23;;;;;;;22.67;8.50;;;;;;;;;;4440392;32;20071;-79
2023/02/17 12:20:00;;;;;;;21.75;8.85;;;;;;;;;;4440243;32;20060;-79
2023/02/17 12:22:32;;;;;;;22.42;9.10;;;;;;;;;;4441533;32;20033;-78
2023/02/17 12:25:15;;;;;;;24.65;9.25;;;;;;;;;;4443156;32;20065;-80
2023/02/17 12:27:49;;;;;;;19.85;8.00;;;;;;;;;;4443485;32;20026;-78
2023/02/17 12:30:30;;;;;;;25.62;9.65;;;;;;;;;;4446278;32;20037;-78
2023/02/17 12:33:02;;;;;;;23.15;9.13;;;;;;;;;;4432123;32;20042;-77
2023/02/17 12:35:39;;;;;;;19.00;7.03;;;;;;;;;;4423970;32;20093;-79
2023/02/17 12:38:10;;;;;;;18.52;7.90;;;;;;;;;;4424260;32;20076;-79
2023/02/17 12:40:37;;;;;;;17.00;7.80;;;;;;;;;;4428388;32;20082;-78
2023/02/17 12:43:23;;;;;;;29.83;7.55;;;;;;;;;;4425348;32;20099;-79
2023/02/17 12:45:49;;;;;;;20.45;7.12;;;;;;;;;;4430829;32;20033;-81
2023/02/17 12:48:18;;;;;;;17.25;6.20;;;;;;;;;;4440477;32;20026;-78
2023/02/17 12:51:01;;;;;;;13.52;6.25;;;;;;;;;;4439792;32;20036;-78
2023/02/17 12:53:47;;;;;;;18.15;5.68;;;;;;;;;;4439827;32;20034;-79
2023/02/17 12:56:24;;;;;;;19.08;5.60;;;;;;;;;;4439133;32;20059;-79
2023/02/17 12:58:51;;;;;;;13.48;5.40;;;;;;;;;;4425281;32;20099;-78
2023/02/17 13:01:18;;;;;;;17.73;5.65;;;;;;;;;;4441404;32;20034;-79
2023/02/17 13:03:44;;;;;;;23.75;6.93;;;;;;;;;;4442537;32;20038;-79
2023/02/17 13:06:09;;;;;;;14.10;6.25;;;;;;;;;;4445264;32;20069;-76
2023/02/17 13:08:35;;;;;;;;;;;;;;;;;;4444179;32;20030;-77
2023/02/17 13:11:02;;;;;;;12.55;5.55;;;;;;;;;;4439860;32;20303;-78
2023/02/17 13:13:28;;;;;;;19.70;5.95;;;;;;;;;;4437669;32;20136;-79
2023/02/17 13:16:01;;;;;;;18.50;7.03;;;;;;;;;;4437750;32;20034;-78
2023/02/17 13:18:28;;;;;;;18.20;5.87;;;;;;;;;;4438689;32;20037;-79
2023/02/17 13:20:55;;;;;;;24.67;6.43;;;;;;;;;;4439612;32;20055;-80
2023/02/17 13:23:34;;;;;;;23.08;6.82;;;;;;;;;;4438017;32;20029;-79
2023/02/17 13:26:02;;;;;;;18.65;5.75;;;;;;;;;;4436963;32;20117;-78
2023/02/17 13:28:33;;;;;;;18.85;5.80;;;;;;;;;;4436858;32;20474;-79
2023/02/17 13:31:06;;;;;;;17.45;6.05;;;;;;;;;;4422747;32;20070;-79
2023/02/17 13:33:38;;;;;;;21.92;5.72;;;;;;;;;;4437511;32;20060;-80
2023/02/17 13:36:19;;;;;;;20.33;7.85;;;;;;;;;;4441677;32;20056;-79
2023/02/17 13:39:07;;;;;;;17.65;6.18;;;;;;;;;;4429465;32;20114;-79
2023/02/17 13:41:42;;;;;;;24.85;6.15;;;;;;;;;;4445058;32;20029;-82
2023/02/17 13:44:23;;;;;;;22.85;7.10;;;;;;;;;;4440529;32;20085;-79
2023/02/17 13:46:49;;;;;;;18.58;5.45;;;;;;;;;;4440077;32;20071;-80
2023/02/17 13:49:14;;;;;;;;;;;;;;;;;;4439609;32;20034;-76
2023/02/17 13:51:39;;;;;;;20.58;5.90;;;;;;;;;;4440498;32;19933;-80
2023/02/17 13:54:05;;;;;;;17.15;5.37;;;;;;;;;;4441634;32;20077;-79
2023/02/17 13:56:31;;;;;;;22.20;7.37;;;;;;;;;;4440304;32;20029;-78
2023/02/17 13:58:56;;;;;;;;;;;;;;;;;;4441312;32;20129;-79
2023/02/17 14:01:25;;;;;;;21.48;5.47;;;;;;;;;;4443767;32;19937;-81
2023/02/17 14:03:52;;;;;;;21.48;5.57;;;;;;;;;;4440968;32;20030;-80
2023/02/17 14:06:32;;;;;;;17.73;5.57;;;;;;;;;;4442385;32;20108;-81
2023/02/17 14:08:57;;;;;;;22.40;6.15;;;;;;;;;;4438376;32;20073;-79
2023/02/17 14:11:22;;;;;;;;;;;;;;;;;;4438007;32;20185;-78
2023/02/17 14:13:49;;;;;;;16.85;5.03;;;;;;;;;;4422854;32;20073;-80
2023/02/17 14:16:33;;;;;;;20.05;6.62;;;;;;;;;;4422729;32;20067;-80
2023/02/17 14:19:09;;;;;;;25.37;4.87;;;;;;;;;;4453705;32;20041;-79
2023/02/17 14:21:36;;;;;;;20.58;5.35;;;;;;;;;;4455794;32;20110;-79
2023/02/17 14:24:01;;;;;;;18.92;5.15;;;;;;;;;;4455532;32;20088;-78
2023/02/17 14:26:26;;;;;;;;;;;;;;;;;;4453887;32;20489;-79
2023/02/17 14:28:53;;;;;;;23.02;5.93;;;;;;;;;;4439760;32;19936;-78
2023/02/17 14:31:19;;;;;;;19.02;5.32;;;;;;;;;;4452320;32;20132;-79
2023/02/17 14:33:51;;;;;;;17.75;4.62;;;;;;;;;;4453926;32;20033;-78
2023/02/17 14:36:24;;;;;;;22.83;6.00;;;;;;;;;;4452687;32;20086;-79
2023/02/17 14:38:53;;;;;;;18.30;5.28;;;;;;;;;;4438878;32;20080;-79
2023/02/17 14:41:18;;;;;;;16.33;4.25;;;;;;;;;;4439097;32;20149;-78
2023/02/17 14:43:43;;;;;;;;;;;;;;;;;;4457382;32;20025;-78
2023/02/17 14:46:08;;;;;;;19.40;6.00;;;;;;;;;;4423950;32;19945;-77
2023/02/17 14:48:34;;;;;;;16.95;5.47;;;;;;;;;;4425924;32;20026;-78
2023/02/17 14:50:59;;;;;;;;;;;;;;;;;;4425505;32;20325;-79
2023/02/17 14:53:25;;;;;;;22.75;5.15;;;;;;;;;;4411387;32;19974;-79
2023/02/17 14:55:50;;;;;;;;;;;;;;;;;;4424744;32;20233;-79
2023/02/17 14:58:20;;;;;;;26.25;5.43;;;;;;;;;;4423429;32;19937;-78
2023/02/17 15:00:45;;;;;;;22.13;4.97;;;;;;;;;;4436121;32;20037;-78